createdAt,value
2022-11-19T00:02:53.253Z,10.10
2022-11-19T00:06:00.381Z,10.10
2022-11-19T00:09:07.906Z,10.60
2022-11-19T00:12:15.100Z,10.30
2022-11-19T00:15:22.242Z,11.00
2022-11-19T00:18:29.630Z,10.70
2022-11-19T00:21:36.411Z,10.40
2022-11-19T00:24:43.905Z,11.00
2022-11-19T00:27:51.229Z,11.40
2022-11-19T00:30:58.091Z,11.50
2022-11-19T00:34:05.653Z,11.40
2022-11-19T00:37:13.081Z,11.40
2022-11-19T00:40:19.832Z,11.70
2022-11-19T00:43:27.454Z,11.40
2022-11-19T00:46:34.586Z,11.50
2022-11-19T00:49:41.744Z,11.40
2022-11-19T00:52:49.251Z,11.80
2022-11-19T00:55:55.951Z,11.40
2022-11-19T00:59:03.259Z,11.50
2022-11-19T01:02:10.753Z,11.80
2022-11-19T01:05:17.560Z,12.00
2022-11-19T01:08:24.934Z,11.30
2022-11-19T01:11:32.244Z,11.50
2022-11-19T01:14:38.923Z,11.40
2022-11-19T01:17:46.644Z,12.00
2022-11-19T01:20:53.443Z,11.90
2022-11-19T01:24:00.521Z,11.40
2022-11-19T01:27:04.093Z,10.70
2022-11-19T01:30:11.407Z,11.30
2022-11-19T01:33:18.556Z,11.60
2022-11-19T01:36:25.744Z,11.80
2022-11-19T01:39:32.768Z,12.40
2022-11-19T01:42:39.962Z,12.00
2022-11-19T01:45:46.757Z,12.20
2022-11-19T01:48:54.177Z,12.20
2022-11-19T01:52:01.262Z,11.70
2022-11-19T01:55:07.957Z,11.60
2022-11-19T01:58:15.297Z,11.60
2022-11-19T02:01:22.775Z,11.60
2022-11-19T02:04:29.468Z,11.90
2022-11-19T02:07:36.969Z,11.00
2022-11-19T02:10:43.936Z,11.70
2022-11-19T02:13:50.977Z,12.60
2022-11-19T02:16:58.491Z,11.90
2022-11-19T02:20:05.668Z,11.70
2022-11-19T02:23:12.736Z,12.60
2022-11-19T02:26:19.779Z,12.90
2022-11-19T02:29:27.098Z,12.20
2022-11-19T02:32:34.237Z,12.60
2022-11-19T02:35:41.455Z,12.80
2022-11-19T02:38:48.896Z,12.30
2022-11-19T02:41:55.887Z,12.20
2022-11-19T02:45:03.010Z,12.70
2022-11-19T02:48:11.041Z,12.70
2022-11-19T02:51:17.843Z,12.20
2022-11-19T02:54:25.328Z,12.80
2022-11-19T02:57:32.909Z,11.80
2022-11-19T03:00:39.718Z,12.60
2022-11-19T03:03:47.419Z,12.20
2022-11-19T03:06:54.737Z,12.60
2022-11-19T03:10:01.559Z,12.50
2022-11-19T03:13:09.087Z,12.00
2022-11-19T03:16:15.797Z,12.20
2022-11-19T03:19:23.140Z,13.30
2022-11-19T03:22:30.608Z,13.10
2022-11-19T03:25:37.339Z,12.80
2022-11-19T03:28:44.879Z,14.00
2022-11-19T03:31:52.383Z,12.70
2022-11-19T03:34:59.579Z,13.40
2022-11-19T03:38:06.560Z,13.30
2022-11-19T03:41:13.618Z,12.30
2022-11-19T03:44:21.110Z,12.60
2022-11-19T03:47:28.274Z,12.90
2022-11-19T03:50:35.420Z,12.30
2022-11-19T03:53:42.630Z,12.60
2022-11-19T03:56:49.602Z,13.00
2022-11-19T03:59:56.810Z,13.10
2022-11-19T04:03:04.162Z,14.40
2022-11-19T04:06:10.950Z,13.30
2022-11-19T04:09:18.962Z,13.60
2022-11-19T04:12:26.635Z,12.90
2022-11-19T04:15:33.450Z,13.30
2022-11-19T04:18:40.971Z,13.60
2022-11-19T04:21:48.304Z,13.00
2022-11-19T04:24:55.154Z,12.30
2022-11-19T04:28:02.711Z,12.70
2022-11-19T04:31:12.353Z,13.40
2022-11-19T04:34:13.353Z,13.10
2022-11-19T04:37:20.662Z,12.70
2022-11-19T04:40:27.472Z,11.90
2022-11-19T04:43:34.774Z,12.80
2022-11-19T04:46:42.273Z,12.70
2022-11-19T04:49:49.035Z,12.60
2022-11-19T04:52:56.561Z,13.20
2022-11-19T04:56:03.697Z,12.50
2022-11-19T04:59:10.751Z,12.60
2022-11-19T05:02:18.254Z,12.70
2022-11-19T05:05:25.253Z,12.80
2022-11-19T05:08:32.350Z,12.40
2022-11-19T05:11:39.450Z,12.20
2022-11-19T05:14:46.894Z,12.50
2022-11-19T05:17:54.043Z,11.70
2022-11-19T05:21:01.203Z,11.50
2022-11-19T05:24:08.683Z,11.80
2022-11-19T05:27:15.674Z,11.90
2022-11-19T05:30:23.376Z,12.00
2022-11-19T05:33:34.034Z,12.30
2022-11-19T05:36:31.383Z,11.90
2022-11-19T05:39:39.103Z,11.60
2022-11-19T05:42:46.795Z,12.60
2022-11-19T05:45:53.757Z,11.60
2022-11-19T05:49:01.314Z,11.40
2022-11-19T05:52:08.934Z,10.40
2022-11-19T05:55:15.715Z,11.20
2022-11-19T05:58:23.293Z,10.30
2022-11-19T06:01:30.766Z,12.00
2022-11-19T06:04:37.805Z,12.90
2022-11-19T06:07:45.182Z,12.60
2022-11-19T06:10:52.365Z,13.30
2022-11-19T06:13:59.233Z,12.60
2022-11-19T06:17:07.065Z,12.60
2022-11-19T06:20:15.165Z,12.70
2022-11-19T06:23:22.848Z,12.50
2022-11-19T06:26:29.944Z,12.90
2022-11-19T06:29:37.575Z,13.30
2022-11-19T06:32:44.806Z,12.70
2022-11-19T06:35:52.226Z,12.60
2022-11-19T06:39:02.104Z,12.70
2022-11-19T06:42:09.284Z,11.90
2022-11-19T06:45:16.156Z,11.30
2022-11-19T06:48:23.634Z,11.60
2022-11-19T06:51:30.749Z,11.30
2022-11-19T06:54:41.846Z,11.80
2022-11-19T06:57:39.876Z,11.50
2022-11-19T07:00:46.678Z,11.90
2022-11-19T07:03:54.376Z,11.30
2022-11-19T07:07:01.993Z,11.20
2022-11-19T07:10:08.858Z,10.50
2022-11-19T07:13:16.187Z,11.70
2022-11-19T07:16:23.498Z,11.90
2022-11-19T07:19:30.728Z,11.30
2022-11-19T07:22:38.301Z,11.30
2022-11-19T07:25:45.397Z,10.70
2022-11-19T07:28:52.688Z,10.90
2022-11-19T07:32:00.019Z,11.40
2022-11-19T07:35:07.378Z,9.60
2022-11-19T07:38:14.899Z,10.00
2022-11-19T07:41:22.560Z,10.60
2022-11-19T07:44:29.916Z,9.70
2022-11-19T07:47:37.295Z,9.90
2022-11-19T07:50:44.708Z,10.20
2022-11-19T07:53:52.539Z,11.30
2022-11-19T07:56:59.960Z,10.50
2022-11-19T08:00:07.522Z,10.70
2022-11-19T08:03:15.387Z,10.50
2022-11-19T08:06:22.432Z,10.00
2022-11-19T08:09:30.234Z,10.60
2022-11-19T08:12:38.015Z,11.20
2022-11-19T08:15:45.121Z,11.70
2022-11-19T08:18:52.919Z,12.10
2022-11-19T08:22:00.650Z,11.40
2022-11-19T08:25:07.712Z,11.40
2022-11-19T08:28:15.521Z,11.60
2022-11-19T08:31:22.862Z,12.80
2022-11-19T08:34:30.113Z,14.00
2022-11-19T08:37:37.792Z,17.00
2022-11-19T08:40:45.172Z,13.80
2022-11-19T08:43:52.639Z,13.90
2022-11-19T08:47:00.370Z,16.10
2022-11-19T08:50:07.832Z,16.90
2022-11-19T08:53:15.331Z,16.50
2022-11-19T08:56:22.691Z,16.80
2022-11-19T08:59:30.270Z,15.50
2022-11-19T09:02:37.798Z,14.30
2022-11-19T09:05:45.061Z,13.40
2022-11-19T09:08:52.500Z,13.40
2022-11-19T09:12:00.500Z,13.00
2022-11-19T09:15:07.821Z,13.00
2022-11-19T09:18:15.273Z,12.00
2022-11-19T09:21:22.593Z,13.20
2022-11-19T09:24:30.352Z,13.20
2022-11-19T09:27:37.820Z,12.60
2022-11-19T09:30:45.273Z,12.50
2022-11-19T09:33:53.214Z,12.50
2022-11-19T09:37:00.883Z,13.20
2022-11-19T09:40:07.832Z,13.70
2022-11-19T09:43:15.854Z,15.20
2022-11-19T09:46:22.884Z,14.50
2022-11-19T09:49:30.644Z,14.40
2022-11-19T09:52:38.579Z,13.00
2022-11-19T09:55:45.634Z,13.60
2022-11-19T09:58:53.714Z,12.30
2022-11-19T10:02:01.252Z,13.20
2022-11-19T10:05:08.704Z,13.20
2022-11-19T10:08:16.325Z,12.90
2022-11-19T10:11:23.815Z,12.50
2022-11-19T10:14:31.697Z,13.10
2022-11-19T10:17:39.213Z,12.10
2022-11-19T10:20:46.605Z,12.80
2022-11-19T10:23:53.948Z,12.40
2022-11-19T10:27:07.234Z,13.50
2022-11-19T10:30:05.304Z,12.80
2022-11-19T10:33:13.545Z,13.20
2022-11-19T10:36:20.988Z,11.70
2022-11-19T10:39:28.571Z,12.40
2022-11-19T10:42:36.007Z,10.80
2022-11-19T10:45:43.490Z,11.20
2022-11-19T10:48:51.398Z,11.00
2022-11-19T10:51:58.789Z,11.60
2022-11-19T10:55:06.098Z,10.10
2022-11-19T10:58:14.009Z,10.80
2022-11-19T11:01:21.039Z,9.80
2022-11-19T11:04:29.168Z,10.00
2022-11-19T11:07:36.630Z,9.90
2022-11-19T11:10:44.184Z,9.80
2022-11-19T11:13:51.966Z,12.80
2022-11-19T11:16:58.831Z,8.10
2022-11-19T11:20:06.621Z,8.10
2022-11-19T11:23:13.740Z,8.10
2022-11-19T11:26:21.580Z,6.40
2022-11-19T11:29:29.631Z,4.20
2022-11-19T11:32:36.811Z,4.60
2022-11-19T11:35:44.702Z,4.50
2022-11-19T11:38:52.297Z,5.80
2022-11-19T11:42:05.830Z,5.10
2022-11-19T11:45:03.634Z,6.60
2022-11-19T11:48:10.612Z,7.20
2022-11-19T11:51:18.493Z,6.60
2022-11-19T11:54:25.872Z,6.70
2022-11-19T11:57:33.291Z,7.10
2022-11-19T12:00:41.093Z,6.90
2022-11-19T12:03:54.855Z,8.00
2022-11-19T12:06:51.825Z,6.80
2022-11-19T12:09:59.189Z,6.80
2022-11-19T12:13:06.715Z,6.40
2022-11-19T12:16:14.776Z,6.20
2022-11-19T12:19:22.098Z,5.70
2022-11-19T12:22:29.735Z,6.10
2022-11-19T12:25:37.234Z,5.80
2022-11-19T12:28:44.726Z,5.20
2022-11-19T12:31:52.476Z,5.80
2022-11-19T12:34:59.746Z,5.90
2022-11-19T12:38:07.677Z,7.30
2022-11-19T12:41:15.369Z,6.50
2022-11-19T12:44:22.717Z,5.70
2022-11-19T12:47:30.115Z,6.10
2022-11-19T12:50:37.589Z,5.40
2022-11-19T12:53:44.989Z,5.60
2022-11-19T12:56:52.959Z,5.20
2022-11-19T12:59:59.929Z,5.30
2022-11-19T13:03:07.742Z,5.60
2022-11-19T13:06:18.073Z,4.90
2022-11-19T13:09:24.970Z,4.90
2022-11-19T13:12:32.441Z,4.80
2022-11-19T13:15:39.302Z,5.80
2022-11-19T13:18:47.143Z,5.30
2022-11-19T13:21:53.989Z,5.00
2022-11-19T13:25:01.152Z,5.10
2022-11-19T13:28:08.619Z,5.30
2022-11-19T13:31:15.573Z,5.70
2022-11-19T13:34:23.118Z,6.00
2022-11-19T13:37:30.180Z,5.30
2022-11-19T13:40:37.182Z,5.50
2022-11-19T13:43:44.635Z,5.40
2022-11-19T13:46:51.814Z,4.90
2022-11-19T13:49:59.084Z,4.90
2022-11-19T13:53:06.405Z,5.90
2022-11-19T13:56:13.576Z,5.60
2022-11-19T13:59:21.393Z,5.40
2022-11-19T14:02:28.736Z,5.40
2022-11-19T14:05:36.436Z,5.30
2022-11-19T14:08:43.596Z,5.90
2022-11-19T14:11:50.807Z,6.00
2022-11-19T14:14:58.147Z,5.00
2022-11-19T14:18:04.884Z,5.40
2022-11-19T14:21:12.337Z,5.40
2022-11-19T14:24:19.748Z,5.40
2022-11-19T14:27:26.498Z,4.90
2022-11-19T14:30:33.960Z,3.90
2022-11-19T14:33:41.060Z,4.10
2022-11-19T14:36:48.194Z,3.70
2022-11-19T14:39:55.659Z,5.40
2022-11-19T14:43:02.639Z,5.30
2022-11-19T14:46:09.692Z,4.70
2022-11-19T14:49:17.338Z,4.20
2022-11-19T14:52:24.681Z,4.20
2022-11-19T14:55:31.800Z,7.80
2022-11-19T14:58:39.049Z,5.40
2022-11-19T15:01:46.582Z,5.00
2022-11-19T15:04:53.569Z,5.10
2022-11-19T15:08:00.722Z,4.90
2022-11-19T15:11:08.151Z,4.90
2022-11-19T15:14:14.962Z,4.80
2022-11-19T15:17:22.435Z,4.80
2022-11-19T15:20:29.756Z,5.10
2022-11-19T15:23:36.453Z,5.10
2022-11-19T15:26:43.970Z,5.20
2022-11-19T15:29:51.205Z,5.40
2022-11-19T15:32:58.033Z,5.40
2022-11-19T15:36:05.633Z,6.00
2022-11-19T15:39:12.344Z,6.50
2022-11-19T15:42:19.582Z,5.70
2022-11-19T15:45:27.102Z,6.00
2022-11-19T15:48:33.755Z,5.60
2022-11-19T15:51:41.846Z,6.30
2022-11-19T15:54:49.015Z,6.70
2022-11-19T15:57:56.557Z,6.60
2022-11-19T16:01:03.888Z,6.90
2022-11-19T16:04:10.926Z,7.40
2022-11-19T16:07:18.123Z,8.10
2022-11-19T16:10:25.565Z,6.90
2022-11-19T16:13:32.657Z,7.40
2022-11-19T16:16:40.117Z,7.40
2022-11-19T16:19:47.338Z,7.00
2022-11-19T16:22:54.738Z,7.60
2022-11-19T16:26:01.798Z,7.00
2022-11-19T16:29:09.026Z,7.00
2022-11-19T16:32:16.743Z,6.90
2022-11-19T16:35:24.178Z,7.40
2022-11-19T16:38:31.619Z,6.80
2022-11-19T16:41:39.319Z,7.80
2022-11-19T16:44:46.839Z,7.30
2022-11-19T16:47:54.302Z,7.90
2022-11-19T16:51:01.947Z,8.20
2022-11-19T16:54:09.401Z,8.20
2022-11-19T16:57:16.750Z,7.90
2022-11-19T17:00:24.565Z,7.60
2022-11-19T17:03:31.568Z,8.70
2022-11-19T17:06:39.472Z,9.40
2022-11-19T17:09:46.862Z,10.00
2022-11-19T17:12:53.871Z,10.40
2022-11-19T17:16:01.681Z,10.00
2022-11-19T17:19:09.031Z,11.00
2022-11-19T17:22:16.422Z,10.90
2022-11-19T17:25:24.301Z,10.90
2022-11-19T17:28:31.432Z,10.60
2022-11-19T17:31:39.510Z,11.40
2022-11-19T17:34:47.551Z,11.50
2022-11-19T17:37:55.313Z,12.60
2022-11-19T17:41:03.014Z,12.80
2022-11-19T17:44:10.533Z,14.60
2022-11-19T17:47:22.462Z,16.40
2022-11-19T17:50:20.279Z,15.40
2022-11-19T17:53:27.744Z,14.50
2022-11-19T17:56:35.274Z,15.00
2022-11-19T17:59:42.992Z,14.10
2022-11-19T18:02:50.304Z,15.00
2022-11-19T18:05:58.015Z,14.90
2022-11-19T18:09:05.386Z,15.80
2022-11-19T18:12:13.175Z,17.70
2022-11-19T18:15:20.583Z,19.60
2022-11-19T18:18:27.895Z,18.50
2022-11-19T18:21:35.826Z,18.50
2022-11-19T18:24:42.788Z,17.70
2022-11-19T18:27:50.389Z,19.20
2022-11-19T18:30:58.217Z,19.60
2022-11-19T18:34:05.166Z,19.50
2022-11-19T18:37:12.976Z,18.70
2022-11-19T18:40:20.509Z,20.90
2022-11-19T18:43:27.548Z,20.70
2022-11-19T18:46:35.515Z,19.10
2022-11-19T18:49:43.278Z,19.90
2022-11-19T18:52:50.439Z,20.10
2022-11-19T18:55:58.178Z,19.30
2022-11-19T18:59:05.519Z,19.90
2022-11-19T19:02:13.110Z,19.80
2022-11-19T19:05:20.728Z,20.30
2022-11-19T19:08:28.048Z,20.80
2022-11-19T19:11:35.488Z,18.60
2022-11-19T19:14:43.421Z,18.80
2022-11-19T19:17:50.887Z,18.00
2022-11-19T19:20:58.259Z,18.30
2022-11-19T19:24:05.629Z,17.70
2022-11-19T19:27:13.080Z,18.00
2022-11-19T19:30:20.489Z,18.70
2022-11-19T19:33:28.008Z,20.60
2022-11-19T19:36:35.459Z,20.90
2022-11-19T19:39:42.995Z,21.70
2022-11-19T19:42:50.503Z,20.40
2022-11-19T19:45:57.771Z,19.40
2022-11-19T19:49:05.181Z,18.00
2022-11-19T19:52:12.941Z,18.50
2022-11-19T19:55:20.432Z,18.60
2022-11-19T19:58:28.387Z,19.50
2022-11-19T20:01:36.429Z,19.80
2022-11-19T20:04:43.855Z,19.30
2022-11-19T20:07:51.315Z,20.10
2022-11-19T20:10:58.911Z,18.80
2022-11-19T20:14:05.867Z,17.50
2022-11-19T20:17:13.636Z,17.50
2022-11-19T20:20:21.236Z,18.00
2022-11-19T20:23:28.353Z,17.80
2022-11-19T20:26:36.013Z,19.20
2022-11-19T20:29:43.954Z,19.30
2022-11-19T20:32:51.114Z,20.10
2022-11-19T20:35:58.884Z,20.50
2022-11-19T20:39:06.343Z,20.50
2022-11-19T20:42:13.736Z,20.40
2022-11-19T20:45:21.476Z,20.60
2022-11-19T20:48:28.848Z,19.20
2022-11-19T20:51:36.336Z,19.50
2022-11-19T20:54:44.106Z,18.80
2022-11-19T20:57:51.656Z,19.60
2022-11-19T21:00:59.020Z,21.50
2022-11-19T21:04:06.365Z,25.30
2022-11-19T21:07:14.230Z,25.10
2022-11-19T21:10:21.525Z,24.20
2022-11-19T21:13:29.016Z,26.60
2022-11-19T21:16:36.746Z,23.50
2022-11-19T21:19:44.206Z,24.30
2022-11-19T21:22:51.556Z,23.50
2022-11-19T21:25:59.243Z,23.50
2022-11-19T21:29:06.704Z,23.70
2022-11-19T21:32:14.146Z,24.60
2022-11-19T21:35:21.596Z,23.50
2022-11-19T21:38:28.587Z,22.40
2022-11-19T21:41:35.916Z,22.60
2022-11-19T21:44:43.908Z,23.00
2022-11-19T21:47:51.010Z,22.40
2022-11-19T21:50:58.927Z,22.60
2022-11-19T21:54:06.609Z,23.40
2022-11-19T21:57:13.674Z,24.00
2022-11-19T22:00:21.297Z,23.90
2022-11-19T22:03:28.496Z,26.70
2022-11-19T22:06:35.998Z,25.00
2022-11-19T22:09:43.929Z,24.70
2022-11-19T22:12:51.208Z,24.90
2022-11-19T22:15:58.229Z,26.20
2022-11-19T22:19:05.859Z,26.90
2022-11-19T22:22:13.465Z,27.40
2022-11-19T22:25:20.830Z,30.60
2022-11-19T22:28:28.268Z,28.70
2022-11-19T22:31:36.080Z,28.30
2022-11-19T22:34:43.641Z,27.10
2022-11-19T22:37:51.088Z,27.60
2022-11-19T22:40:58.549Z,29.00
2022-11-19T22:44:06.021Z,29.40
2022-11-19T22:47:13.470Z,27.10
2022-11-19T22:50:20.741Z,26.50
2022-11-19T22:53:27.710Z,26.20
2022-11-19T22:56:35.480Z,26.20
2022-11-19T22:59:42.650Z,24.50
2022-11-19T23:02:50.074Z,21.90
2022-11-19T23:05:57.721Z,21.90
2022-11-19T23:09:04.913Z,22.10
2022-11-19T23:12:12.450Z,22.50
2022-11-19T23:15:20.060Z,20.90
2022-11-19T23:18:27.022Z,20.30
2022-11-19T23:21:34.782Z,19.60
2022-11-19T23:24:42.569Z,20.00
2022-11-19T23:27:49.535Z,18.90
2022-11-19T23:30:57.532Z,18.80
2022-11-19T23:34:05.312Z,20.30
2022-11-19T23:37:12.374Z,19.50
2022-11-19T23:40:20.233Z,21.10
2022-11-19T23:43:27.503Z,20.40
2022-11-19T23:46:35.009Z,21.40
2022-11-19T23:49:42.612Z,19.30
2022-11-19T23:52:49.646Z,20.30
2022-11-19T23:55:57.634Z,19.50
2022-11-19T23:59:05.444Z,18.50
